Time;durP1;ratioP1;P1;durP2;ratioP2;P2;SDS_P1;SDS_P2;PMS_P1;PMS_P2;Temp;Humidity;BMP_temperature;BMP_pressure;BME280_temperature;BME280_humidity;BME280_pressure;Samples;Min_cycle;Max_cycle;Signal;HPM_P1;HPM_P2
2021/08/13 00:00:52;;;;;;;11.15;6.15;;;23.10;63.80;;;23.35;51.07;97994.66;5047273;28;20048;-36
2021/08/13 00:03:20;;;;;;;8.60;6.22;;;23.10;63.90;;;23.33;51.04;97994.09;5047772;28;20053;-36
2021/08/13 00:05:49;;;;;;;7.50;6.35;;;23.00;63.70;;;23.28;51.04;97992.03;5047012;28;20055;-36
2021/08/13 00:08:17;;;;;;;9.73;6.30;;;23.00;64.10;;;23.25;51.38;97989.81;5047179;28;20056;-36
2021/08/13 00:10:45;;;;;;;6.90;5.50;;;22.90;64.50;;;23.21;51.72;97985.09;5045163;28;20064;-36
2021/08/13 00:13:13;;;;;;;8.07;5.95;;;22.80;65.00;;;23.14;51.72;97972.44;5046952;28;20351;-36
2021/08/13 00:15:40;;;;;;;8.00;5.50;;;22.80;65.30;;;23.12;52.01;97979.19;5046293;28;20065;-36
2021/08/13 00:18:08;;;;;;;6.97;5.95;;;22.80;65.60;;;23.08;51.93;97976.09;5046547;28;20154;-36
2021/08/13 00:20:36;;;;;;;8.65;5.78;;;22.70;65.60;;;23.08;52.12;97976.09;5046471;28;20045;-36
2021/08/13 00:23:04;;;;;;;7.15;5.63;;;22.70;65.40;;;23.06;52.35;97974.69;5047359;28;20063;-36
2021/08/13 00:25:32;;;;;;;9.18;6.47;;;22.80;65.60;;;23.03;52.37;97972.41;5047241;28;20347;-36
2021/08/13 00:28:01;;;;;;;8.02;6.95;;;22.70;66.00;;;23.00;52.74;97966.38;5045781;28;20040;-36
2021/08/13 00:30:28;;;;;;;9.30;5.95;;;22.70;66.00;;;22.97;52.38;97975.00;5046460;28;20057;-36
2021/08/13 00:32:56;;;;;;;8.02;6.50;;;22.70;65.90;;;22.97;52.58;97971.44;5046947;28;20053;-36
2021/08/13 00:35:24;;;;;;;5.93;5.32;;;22.70;65.70;;;22.96;52.45;97970.63;5046377;28;20061;-36
2021/08/13 00:37:53;;;;;;;9.73;5.90;;;22.70;65.50;;;22.98;52.36;97973.09;5044305;28;20067;-36
2021/08/13 00:40:21;;;;;;;7.75;6.18;;;22.70;65.60;;;22.99;52.18;97975.59;5043196;28;20049;-36
2021/08/13 00:42:49;;;;;;;6.22;5.60;;;22.70;65.60;;;23.00;52.20;97973.69;5044825;28;20238;-36
2021/08/13 00:45:18;;;;;;;7.47;5.40;;;22.70;65.20;;;23.00;52.07;97971.78;5045901;28;20053;-36
2021/08/13 00:48:00;;;;;;;7.60;5.57;;;22.70;64.90;;;22.99;52.08;97977.44;5043696;28;20057;-36
2021/08/13 00:50:47;;;;;;;6.57;5.88;;;22.70;64.90;;;22.97;52.09;97985.84;5046877;28;20049;-36
2021/08/13 00:53:16;;;;;;;7.22;5.47;;;22.70;65.20;;;22.95;52.28;97987.13;5046307;28;20055;-36
2021/08/13 00:55:50;;;;;;;6.82;5.63;;;22.70;65.60;;;22.90;52.46;97992.44;5028590;28;20402;-36
2021/08/13 00:58:41;;;;;;;;;;;22.60;65.60;;;22.86;52.19;97985.84;5043543;28;20067;-36
2021/08/13 01:01:27;;;;;;;7.55;5.68;;;22.60;66.70;;;22.87;52.36;97992.91;5061081;28;20162;-36
2021/08/13 01:03:58;;;;;;;9.15;5.72;;;22.50;66.20;;;22.85;52.40;97987.69;5043916;28;20049;-38
2021/08/13 01:06:28;;;;;;;7.10;6.38;;;22.60;66.00;;;22.85;52.81;97981.44;5042532;28;20053;-35
2021/08/13 01:08:57;;;;;;;7.55;6.20;;;22.60;66.20;;;22.85;52.53;97979.56;5045267;28;20063;-36
2021/08/13 01:11:43;;;;;;;8.57;5.88;;;22.50;66.30;;;22.79;53.09;97980.47;5043683;28;20057;-36
2021/08/13 01:14:45;;;;;;;7.28;6.00;;;22.50;67.50;;;22.79;53.01;97986.72;5043419;28;20064;-36
2021/08/13 01:17:19;;;;;;;7.57;5.75;;;22.50;67.10;;;22.83;52.69;97986.28;5046514;28;20060;-36
2021/08/13 01:20:08;;;;;;;8.40;5.95;;;22.60;66.20;;;22.84;52.86;97987.91;5044351;28;20064;-36
2021/08/13 01:23:14;;;;;;;7.72;6.68;;;22.60;67.00;;;22.81;53.03;97990.03;5043229;28;20061;-36
2021/08/13 01:25:49;;;;;;;7.70;6.13;;;22.60;67.50;;;22.76;53.31;97986.38;5030988;28;20059;-36
2021/08/13 01:29:22;;;;;;;7.97;7.03;;;22.50;67.00;;;22.72;52.73;97993.31;5043020;28;20057;-36
2021/08/13 01:32:12;;;;;;;7.65;6.18;;;22.40;67.30;;;22.68;53.16;98002.97;5041198;28;20051;-36
2021/08/13 01:34:52;;;;;;;10.25;6.97;;;22.40;67.50;;;22.68;53.03;98003.84;5026772;28;20049;-36
2021/08/13 01:37:21;;;;;;;9.18;6.55;;;22.40;66.70;;;22.67;53.12;98009.47;5026183;28;20087;-36
2021/08/13 01:40:02;;;;;;;8.05;7.03;;;22.40;66.40;;;22.68;52.88;98019.25;5046659;28;20052;-36
2021/08/13 01:42:33;;;;;;;9.95;7.40;;;22.40;66.40;;;22.67;53.29;98017.63;5043727;28;20051;-36
2021/08/13 01:45:06;;;;;;;10.82;6.53;;;22.40;67.00;;;22.61;53.75;98012.03;5043800;28;20238;-36
2021/08/13 01:47:42;;;;;;;10.10;7.07;;;22.30;67.50;;;22.60;53.64;98007.69;5042913;28;20049;-36
2021/08/13 01:50:10;;;;;;;9.60;7.07;;;22.30;68.00;;;22.55;53.68;98006.72;5043904;28;20421;-36
2021/08/13 01:52:41;;;;;;;11.20;7.03;;;22.20;68.10;;;22.46;53.88;98010.81;5042669;28;20363;-36
2021/08/13 01:55:12;;;;;;;9.65;6.75;;;22.10;68.70;;;22.44;54.05;98021.06;5044093;28;20394;-36
2021/08/13 01:57:44;;;;;;;10.13;7.57;;;22.10;68.80;;;22.42;53.99;98016.66;5042572;28;20048;-36
2021/08/13 02:00:21;;;;;;;8.65;6.63;;;22.10;68.70;;;22.40;54.00;98012.53;5042940;28;20067;-36
2021/08/13 02:02:54;;;;;;;9.25;6.75;;;22.10;69.20;;;22.38;54.23;98004.63;5043133;28;20057;-36
2021/08/13 02:05:29;;;;;;;7.95;6.28;;;22.10;68.90;;;22.41;54.30;98015.03;5045105;28;20056;-36
2021/08/13 02:08:05;;;;;;;7.55;5.90;;;22.10;68.80;;;22.44;54.18;98007.50;5026445;28;20057;-36
2021/08/13 02:10:40;;;;;;;6.82;5.90;;;22.20;68.60;;;22.47;54.02;98007.03;5028132;28;20064;-36
2021/08/13 02:13:10;;;;;;;8.82;5.97;;;22.20;68.10;;;22.45;54.36;98001.84;5043404;28;20063;-36
2021/08/13 02:15:43;;;;;;;9.52;6.60;;;22.20;68.10;;;22.45;54.42;98004.56;5049594;28;20059;-36
2021/08/13 02:18:20;;;;;;;10.30;6.95;;;22.20;68.00;;;22.47;54.58;98001.59;5035069;28;20093;-36
2021/08/13 02:20:52;;;;;;;7.20;6.10;;;22.30;68.20;;;22.48;54.28;98001.38;5050379;28;20061;-36
2021/08/13 02:23:20;;;;;;;8.68;7.70;;;22.30;68.00;;;22.54;54.54;97994.19;5048768;28;20056;-36
2021/08/13 02:25:56;;;;;;;9.30;6.55;;;22.40;67.80;;;22.57;54.09;97993.75;5049883;28;20057;-36
2021/08/13 02:28:24;;;;;;;11.18;7.40;;;22.40;67.80;;;22.58;54.35;97993.50;5050326;28;20053;-36
2021/08/13 02:30:51;;;;;;;10.13;7.97;;;22.40;67.70;;;22.61;54.08;97992.22;5049864;28;20048;-36
2021/08/13 02:33:21;;;;;;;10.23;7.05;;;22.50;67.50;;;22.67;53.85;97998.63;5049579;28;20052;-36
2021/08/13 02:35:54;;;;;;;8.73;7.15;;;22.60;66.90;;;22.67;54.19;98002.16;5051357;28;20383;-36
2021/08/13 02:38:31;;;;;;;7.63;6.63;;;22.70;66.80;;;22.67;54.33;97998.63;5035680;28;20224;-36
2021/08/13 02:41:03;;;;;;;9.27;6.82;;;22.60;67.60;;;22.65;54.43;97998.03;5049874;28;20059;-36
2021/08/13 02:43:58;;;;;;;9.20;6.88;;;22.60;68.00;;;22.63;54.51;97990.13;5034418;28;20063;-36
2021/08/13 02:46:33;;;;;;;;;;;22.50;68.90;;;22.59;54.69;97986.22;5051236;28;20083;-36
2021/08/13 02:49:09;;;;;;;11.13;6.90;;;22.40;69.20;;;22.68;54.60;97981.28;5032881;28;19923;-36
2021/08/13 02:51:40;;;;;;;9.48;7.50;;;22.50;68.50;;;22.73;54.87;97992.28;5032555;28;20056;-36
2021/08/13 02:54:24;;;;;;;7.85;6.63;;;22.60;68.30;;;22.76;54.53;98003.50;5034190;28;20442;-36
2021/08/13 02:56:58;;;;;;;9.52;7.22;;;22.70;68.80;;;22.73;54.80;98003.13;5049652;28;20063;-36
2021/08/13 02:59:31;;;;;;;9.60;6.38;;;22.50;68.70;;;22.63;55.06;98003.69;5049772;28;20232;-36
2021/08/13 03:02:02;;;;;;;9.18;7.78;;;22.40;69.20;;;22.48;55.70;98016.81;5050128;28;20324;-36
2021/08/13 03:04:35;;;;;;;11.60;7.22;;;22.30;70.00;;;22.33;56.75;98020.78;5050354;28;20049;-36
2021/08/13 03:07:03;;;;;;;9.30;7.43;;;22.10;71.90;;;22.20;56.76;98021.72;5050088;28;20057;-36
2021/08/13 03:09:33;;;;;;;8.82;6.93;;;21.80;72.30;;;22.22;56.55;98024.22;5034170;28;20065;-36
2021/08/13 03:12:02;;;;;;;8.45;6.95;;;21.80;71.70;;;22.25;56.29;98025.66;5032529;28;20045;-36
2021/08/13 03:14:30;;;;;;;8.38;6.88;;;21.90;71.50;;;22.31;56.28;98016.63;5034661;28;20049;-36
2021/08/13 03:16:59;;;;;;;10.73;7.90;;;22.10;71.20;;;22.36;56.13;98008.63;5050604;28;20060;-36
2021/08/13 03:19:27;;;;;;;13.40;7.80;;;22.20;70.80;;;22.35;56.30;98020.53;5051233;28;20063;-36
2021/08/13 03:21:56;;;;;;;8.10;6.95;;;22.10;70.90;;;22.35;56.48;98012.38;5051434;28;20251;-36
2021/08/13 03:24:24;;;;;;;9.77;6.78;;;22.10;71.10;;;22.27;56.33;98007.28;5050307;28;20048;-36
2021/08/13 03:26:53;;;;;;;9.98;7.32;;;22.00;71.50;;;22.26;57.64;97994.78;5046714;28;20254;-36
2021/08/13 03:29:21;;;;;;;11.68;7.53;;;22.00;73.60;;;22.27;57.93;97986.41;5046144;28;20339;-36
2021/08/13 03:32:00;;;;;;;9.43;7.63;;;22.00;74.30;;;22.32;58.42;97988.47;5048259;28;20048;-36
2021/08/13 03:34:28;;;;;;;9.38;7.40;;;22.10;75.70;;;22.33;59.06;98009.94;5046118;28;20367;-36
2021/08/13 03:36:58;;;;;;;10.07;7.30;;;22.10;75.80;;;22.28;58.84;98011.66;5029475;28;20057;-36
2021/08/13 03:39:25;;;;;;;9.20;8.10;;;22.00;75.20;;;22.24;58.89;98011.25;5048774;28;20228;-37
2021/08/13 03:41:55;;;;;;;9.10;7.63;;;22.00;76.10;;;22.21;59.81;98025.25;5045924;28;20049;-36
2021/08/13 03:44:24;;;;;;;11.63;7.90;;;21.90;76.80;;;22.19;59.52;98030.06;5045591;28;20061;-37
2021/08/13 03:46:54;;;;;;;9.68;7.57;;;22.00;76.50;;;22.20;59.82;98038.00;5045244;28;20059;-36
2021/08/13 03:49:22;;;;;;;10.40;7.28;;;22.00;76.60;;;22.15;60.85;98045.97;5045146;28;20061;-37
2021/08/13 03:51:50;;;;;;;13.20;8.93;;;21.90;80.50;;;22.09;61.25;98035.22;5045581;28;20063;-36
2021/08/13 03:54:18;;;;;;;14.02;8.45;;;21.70;80.10;;;21.97;61.65;98032.41;5045972;28;20206;-37
2021/08/13 03:56:47;;;;;;;12.15;8.68;;;21.50;82.50;;;21.86;62.49;98038.59;5048772;28;20061;-37
2021/08/13 03:59:14;;;;;;;12.88;8.55;;;21.30;83.20;;;21.78;62.14;98053.25;5046588;28;20087;-37
2021/08/13 04:01:43;;;;;;;11.27;8.40;;;21.30;83.70;;;21.70;63.02;98053.53;5047157;28;20071;-37
2021/08/13 04:04:12;;;;;;;10.52;8.30;;;21.20;85.00;;;21.67;63.29;98043.97;5046092;28;20059;-37
2021/08/13 04:06:42;;;;;;;11.25;9.50;;;21.20;85.70;;;21.70;63.31;98045.41;5045028;28;20059;-36
2021/08/13 04:09:11;;;;;;;10.93;9.07;;;21.20;85.60;;;21.70;63.54;98059.78;5044200;28;20076;-37
2021/08/13 04:11:39;;;;;;;12.20;8.20;;;21.20;86.30;;;21.69;63.45;98063.53;5046118;28;20049;-37
2021/08/13 04:14:08;;;;;;;9.75;8.75;;;21.30;86.30;;;21.66;63.94;98053.16;5046231;28;20262;-37
2021/08/13 04:16:36;;;;;;;10.07;8.40;;;21.20;86.30;;;21.66;63.99;98052.34;5045110;28;20428;-37
2021/08/13 04:19:04;;;;;;;10.68;9.10;;;21.20;87.00;;;21.68;64.25;98055.66;5046372;28;20240;-37
2021/08/13 04:21:36;;;;;;;11.65;9.07;;;21.30;86.50;;;21.70;64.13;98054.34;5045191;28;20051;-36
2021/08/13 04:24:04;;;;;;;11.95;10.55;;;21.40;86.00;;;21.73;64.28;98053.94;5045923;28;20274;-37
2021/08/13 04:26:32;;;;;;;16.08;9.57;;;21.40;85.70;;;21.76;64.09;98066.19;5046525;28;20059;-37
2021/08/13 04:29:00;;;;;;;10.95;9.60;;;21.50;85.60;;;21.74;63.56;98060.16;5048386;28;20064;-37
2021/08/13 04:31:28;;;;;;;11.15;9.55;;;21.40;84.80;;;21.70;63.55;98053.53;5046434;28;20239;-37
2021/08/13 04:33:59;;;;;;;11.25;9.05;;;21.40;85.70;;;21.69;63.67;98054.56;5045438;28;20063;-37
2021/08/13 04:36:28;;;;;;;10.70;9.45;;;21.30;85.60;;;21.67;63.84;98067.53;5045143;28;20244;-37
2021/08/13 04:38:56;;;;;;;11.00;9.80;;;21.30;85.80;;;21.65;64.00;98070.44;5044560;28;20067;-37
2021/08/13 04:41:33;;;;;;;11.45;9.73;;;21.30;85.90;;;21.56;64.23;98064.50;5045279;28;20041;-37
2021/08/13 04:44:01;;;;;;;12.48;10.30;;;21.20;86.50;;;21.52;64.62;98074.13;5044034;28;20055;-37
2021/08/13 04:46:29;;;;;;;12.68;10.23;;;21.10;86.90;;;21.53;64.68;98077.66;5045510;28;20049;-37
2021/08/13 04:48:57;;;;;;;11.93;10.07;;;21.10;87.10;;;21.48;64.84;98072.06;5045923;28;20052;-37
2021/08/13 04:51:26;;;;;;;11.57;9.43;;;21.10;87.80;;;21.38;65.14;98078.78;5045326;28;20065;-36
2021/08/13 04:53:54;;;;;;;10.40;8.68;;;21.00;88.10;;;21.30;65.35;98068.19;5045515;28;20071;-37
2021/08/13 04:56:22;;;;;;;11.43;8.00;;;20.90;88.50;;;21.28;64.97;98080.31;5043618;28;20559;-37
2021/08/13 04:58:49;;;;;;;9.90;8.75;;;20.80;87.80;;;21.29;64.71;98087.41;5047077;28;20087;-37
2021/08/13 05:01:46;;;;;;;11.52;8.80;;;20.90;87.80;;;21.28;64.92;98083.84;5045277;28;20071;-37
2021/08/13 05:04:15;;;;;;;11.35;8.13;;;20.90;87.30;;;21.28;64.64;98086.53;5044685;28;20385;-37
2021/08/13 05:06:43;;;;;;;11.75;8.27;;;20.90;87.40;;;21.29;64.58;98081.97;5046397;28;20049;-37
2021/08/13 05:09:12;;;;;;;10.75;8.98;;;20.90;87.10;;;21.31;64.70;98078.00;5043522;28;20388;-37
2021/08/13 05:11:40;;;;;;;10.27;9.18;;;21.00;87.10;;;21.35;64.91;98092.75;5045786;28;20053;-37
2021/08/13 05:14:08;;;;;;;12.48;9.30;;;21.10;87.10;;;21.36;64.87;98105.22;5042944;28;20066;-37
2021/08/13 05:16:37;;;;;;;12.02;9.55;;;21.10;87.10;;;21.35;64.73;98100.88;5045194;28;20060;-36
2021/08/13 05:19:05;;;;;;;10.60;8.85;;;21.10;87.10;;;21.36;64.94;98099.00;5044372;28;20053;-37
2021/08/13 05:21:40;;;;;;;10.07;8.52;;;21.10;88.10;;;21.37;65.03;98103.38;5045546;28;20056;-36
2021/08/13 05:24:12;;;;;;;14.93;9.68;;;21.10;87.80;;;21.36;65.16;98101.69;5045316;28;20118;-36
2021/08/13 05:26:41;;;;;;;11.77;9.77;;;21.10;87.10;;;21.36;64.71;98102.53;5048202;28;20059;-36
2021/08/13 05:29:10;;;;;;;11.05;9.95;;;21.10;86.60;;;21.36;64.84;98109.81;5043633;28;20059;-36
2021/08/13 05:31:39;;;;;;;12.13;9.45;;;21.00;86.70;;;21.36;65.05;98094.41;5043904;28;20048;-36
2021/08/13 05:34:07;;;;;;;13.80;10.80;;;21.10;86.80;;;21.35;64.92;98098.16;5044353;28;20056;-36
2021/08/13 05:36:35;;;;;;;12.88;9.73;;;21.10;86.30;;;21.34;65.14;98098.38;5045331;28;20049;-36
2021/08/13 05:39:03;;;;;;;11.75;9.25;;;21.00;87.00;;;21.29;65.64;98107.16;5042038;28;20061;-36
2021/08/13 05:41:32;;;;;;;14.15;10.57;;;21.00;87.90;;;21.31;65.66;98096.13;5043040;28;20127;-36
2021/08/13 05:44:00;;;;;;;12.52;11.23;;;21.10;88.10;;;21.35;66.24;98095.47;5044226;28;20067;-36
2021/08/13 05:46:27;;;;;;;14.25;10.60;;;21.10;88.80;;;21.40;66.27;98092.94;5045058;28;20497;-36
2021/08/13 05:48:57;;;;;;;11.50;10.00;;;21.30;88.70;;;21.50;66.05;98097.88;5045646;28;20445;-36
2021/08/13 05:51:26;;;;;;;11.60;9.38;;;21.40;88.10;;;21.58;65.82;98097.59;5045647;28;20056;-36
2021/08/13 05:53:55;;;;;;;11.07;9.57;;;21.50;87.80;;;21.68;65.97;98094.41;5044602;28;20062;-36
2021/08/13 05:56:23;;;;;;;10.32;8.85;;;21.60;87.40;;;21.76;66.25;98102.25;5043270;28;20063;-36
2021/08/13 05:58:51;;;;;;;13.20;9.70;;;21.70;87.30;;;21.87;65.71;98107.97;5045004;28;20064;-36
2021/08/13 06:01:19;;;;;;;12.52;10.02;;;21.80;87.10;;;21.93;65.73;98109.81;5043599;28;20060;-36
2021/08/13 06:03:47;;;;;;;13.50;9.23;;;21.90;87.00;;;21.97;65.81;98106.44;5042808;28;20056;-36
2021/08/13 06:06:15;;;;;;;12.13;9.45;;;21.90;86.60;;;22.06;65.24;98106.94;5044877;28;20048;-36
2021/08/13 06:08:43;;;;;;;11.57;8.98;;;22.00;86.20;;;22.07;65.50;98103.19;5044679;28;20056;-37
2021/08/13 06:11:11;;;;;;;13.40;8.38;;;22.00;85.80;;;22.10;64.64;98110.91;5043031;28;20053;-36
2021/08/13 06:13:39;;;;;;;14.02;9.32;;;22.10;85.00;;;22.14;64.53;98112.09;5041979;28;20355;-36
2021/08/13 06:16:07;;;;;;;9.13;8.20;;;22.10;84.60;;;22.17;64.81;98105.41;5043824;28;20263;-37
2021/08/13 06:18:36;;;;;;;11.15;8.23;;;22.10;84.80;;;22.15;64.53;98113.75;5042469;28;20254;-36
2021/08/13 06:21:04;;;;;;;10.90;9.77;;;22.00;84.90;;;22.15;64.49;98100.19;5044472;28;20057;-36
2021/08/13 06:23:35;;;;;;;11.98;9.23;;;22.00;85.00;;;22.12;64.84;98108.78;5042482;28;20252;-38
2021/08/13 06:26:04;;;;;;;12.30;9.32;;;22.00;85.10;;;22.11;64.15;98109.84;5045030;28;20056;-36
2021/08/13 06:28:35;;;;;;;11.48;9.20;;;21.90;84.80;;;22.10;64.10;98115.47;5041755;28;20057;-35
2021/08/13 06:31:03;;;;;;;12.13;8.55;;;21.90;84.50;;;22.12;64.48;98116.06;5044290;28;20053;-36
2021/08/13 06:33:32;;;;;;;9.88;8.32;;;22.00;84.90;;;22.11;64.59;98115.25;5044851;28;20060;-38
2021/08/13 06:36:00;;;;;;;11.20;8.73;;;21.90;85.30;;;22.12;64.67;98118.78;5042234;28;20072;-37
2021/08/13 06:38:32;;;;;;;14.10;8.48;;;22.00;85.60;;;22.13;64.20;98120.47;5042522;28;20056;-36
2021/08/13 06:41:00;;;;;;;9.82;8.48;;;22.00;84.70;;;22.14;64.13;98113.97;5042958;28;20281;-36
2021/08/13 06:43:28;;;;;;;10.18;8.82;;;22.00;84.50;;;22.15;64.56;98113.75;5043757;28;20292;-36
2021/08/13 06:45:57;;;;;;;8.98;8.02;;;22.00;85.00;;;22.18;64.85;98116.03;5043990;28;20373;-36
2021/08/13 06:48:30;;;;;;;11.15;9.23;;;22.10;84.90;;;22.22;64.98;98122.66;5043515;28;20045;-37
2021/08/13 06:50:58;;;;;;;11.65;9.40;;;22.20;85.00;;;22.26;64.82;98128.50;5043712;28;20060;-36
2021/08/13 06:53:30;;;;;;;10.60;8.80;;;22.20;84.70;;;22.30;64.42;98123.44;5044311;28;20053;-36
2021/08/13 06:55:58;;;;;;;9.52;7.88;;;22.20;84.30;;;22.32;64.49;98124.06;5044467;28;20135;-37
2021/08/13 06:58:26;;;;;;;10.20;8.23;;;22.30;84.50;;;22.36;64.53;98114.41;5041762;28;20053;-36
2021/08/13 07:00:54;;;;;;;12.75;8.30;;;22.30;84.50;;;22.37;64.59;98127.75;5042731;28;20060;-36
2021/08/13 07:03:23;;;;;;;12.65;10.13;;;22.40;84.40;;;22.39;64.61;98127.50;5047059;28;20051;-37
2021/08/13 07:05:51;;;;;;;11.10;8.60;;;22.40;84.30;;;22.48;64.49;98144.31;5046555;28;20400;-37
2021/08/13 07:08:19;;;;;;;12.02;8.73;;;22.50;84.00;;;22.53;64.07;98134.47;5045305;28;20045;-36
2021/08/13 07:10:55;;;;;;;9.45;7.80;;;22.50;83.50;;;22.58;64.46;98140.00;5045670;28;20049;-37
2021/08/13 07:13:23;;;;;;;11.77;9.13;;;22.60;83.50;;;22.63;63.94;98139.34;5046177;28;20049;-37
2021/08/13 07:15:51;;;;;;;10.10;8.75;;;22.70;83.10;;;22.67;64.00;98137.00;5046753;28;20351;-36
2021/08/13 07:18:19;;;;;;;12.00;9.07;;;22.70;82.90;;;22.73;64.12;98139.63;5045945;28;20059;-37
2021/08/13 07:20:47;;;;;;;11.10;9.15;;;22.80;83.00;;;22.76;64.08;98135.63;5053634;28;20049;-36
2021/08/13 07:23:15;;;;;;;11.25;9.25;;;22.80;83.10;;;22.81;64.03;98127.66;5055473;28;20051;-36
2021/08/13 07:25:44;;;;;;;12.43;8.82;;;22.90;82.70;;;22.88;63.38;98127.56;5047618;28;20059;-36
2021/08/13 07:28:12;;;;;;;11.98;8.93;;;23.00;82.20;;;22.96;63.50;98129.97;5044143;28;20060;-36
2021/08/13 07:30:44;;;;;;;16.77;9.23;;;23.10;82.30;;;23.02;63.53;98133.66;5029635;28;20565;-36
2021/08/13 07:33:12;;;;;;;11.23;9.20;;;23.20;82.10;;;23.08;63.60;98138.19;5046610;28;20063;-36
2021/08/13 07:35:41;;;;;;;12.07;10.35;;;23.20;81.80;;;23.14;63.20;98143.50;5047601;28;20049;-36
2021/08/13 07:38:09;;;;;;;16.40;10.88;;;23.30;81.30;;;23.18;63.42;98141.16;5045782;28;20048;-37
2021/08/13 07:40:37;;;;;;;14.38;11.25;;;23.30;81.50;;;23.23;63.09;98138.59;5046173;28;20051;-37
2021/08/13 07:43:07;;;;;;;12.73;11.20;;;23.40;81.30;;;23.29;62.90;98142.28;5046058;28;20053;-38
2021/08/13 07:45:36;;;;;;;11.73;10.13;;;23.40;81.10;;;23.31;63.33;98149.13;5063534;28;20053;-38
2021/08/13 07:48:05;;;;;;;11.85;9.43;;;23.50;81.30;;;23.34;63.13;98156.84;5048575;28;20123;-37
2021/08/13 07:50:34;;;;;;;11.73;9.65;;;23.50;81.20;;;23.35;62.81;98155.75;5046290;28;20049;-37
2021/08/13 07:53:03;;;;;;;15.70;11.60;;;23.50;80.80;;;23.42;63.00;98154.81;5045886;28;20060;-37
2021/08/13 07:55:31;;;;;;;11.82;9.30;;;23.60;81.00;;;23.47;62.72;98163.13;5045291;28;20067;-36
2021/08/13 07:57:59;;;;;;;13.40;9.70;;;23.60;80.70;;;23.53;62.85;98160.28;5046408;28;20551;-37
2021/08/13 08:00:27;;;;;;;12.57;9.85;;;23.70;80.80;;;23.60;62.78;98165.66;5038118;28;20049;-37
2021/08/13 08:02:55;;;;;;;13.30;10.35;;;23.80;80.70;;;23.66;62.91;98162.00;5034857;28;20459;-37
2021/08/13 08:05:23;;;;;;;11.25;10.05;;;23.90;80.80;;;23.70;63.01;98167.78;5036370;28;20055;-36
2021/08/13 08:07:51;;;;;;;12.77;9.93;;;23.90;81.30;;;23.73;63.06;98165.44;5035519;28;20220;-36
2021/08/13 08:10:20;;;;;;;12.85;8.65;;;23.90;81.00;;;23.80;62.58;98167.25;5034568;28;20209;-36
2021/08/13 08:12:48;;;;;;;11.80;9.07;;;24.00;80.20;;;23.83;62.63;98175.78;5034460;28;20056;-36
2021/08/13 08:15:16;;;;;;;8.98;7.57;;;24.00;80.30;;;23.88;62.00;98178.59;5035595;28;20220;-37
2021/08/13 08:17:44;;;;;;;10.55;9.45;;;24.10;79.60;;;23.94;62.58;98179.56;5034933;28;20056;-37
2021/08/13 08:20:12;;;;;;;10.20;8.35;;;24.20;80.10;;;24.00;62.15;98180.50;5032783;28;20044;-36
2021/08/13 08:22:40;;;;;;;11.82;8.02;;;24.30;79.50;;;24.04;61.31;98185.25;5026287;28;20044;-36
2021/08/13 08:25:09;;;;;;;8.45;7.38;;;24.30;78.20;;;24.09;60.98;98182.66;5026462;28;20225;-37
2021/08/13 08:27:37;;;;;;;12.02;8.50;;;24.40;77.60;;;24.11;60.47;98183.22;5026200;28;20087;-37
2021/08/13 08:30:06;;;;;;;10.88;8.32;;;24.40;77.00;;;24.12;60.41;98194.97;5026042;28;20238;-36
2021/08/13 08:32:34;;;;;;;9.85;8.30;;;24.40;76.10;;;24.16;60.90;98196.16;5026380;28;20052;-36
2021/08/13 08:35:02;;;;;;;11.40;8.35;;;24.40;77.30;;;24.18;60.91;98197.56;5026137;28;20055;-37
2021/08/13 08:37:30;;;;;;;9.98;7.60;;;24.50;77.50;;;24.21;60.57;98198.16;5025377;28;20042;-36
2021/08/13 08:39:58;;;;;;;11.95;8.77;;;24.50;77.10;;;24.21;60.42;98198.97;5025007;28;20355;-36
2021/08/13 08:42:26;;;;;;;11.55;8.60;;;24.40;76.70;;;24.20;60.13;98194.59;5025915;28;20060;-36
2021/08/13 08:44:54;;;;;;;9.57;8.10;;;24.40;76.70;;;24.21;60.27;98196.25;5027884;28;20255;-36
2021/08/13 08:47:24;;;;;;;9.73;8.55;;;24.40;76.80;;;24.26;60.38;98195.56;5025835;28;20052;-36
2021/08/13 08:49:53;;;;;;;12.50;10.00;;;24.50;77.00;;;24.26;60.15;98192.84;5024984;28;20253;-37
2021/08/13 08:52:25;;;;;;;11.45;8.65;;;24.50;76.70;;;24.26;60.12;98193.66;5024806;28;20051;-36
2021/08/13 08:54:54;;;;;;;9.48;8.48;;;24.40;76.70;;;24.30;60.29;98191.28;5028815;28;20056;-36
2021/08/13 08:57:29;;;;;;;9.32;8.32;;;24.50;77.00;;;24.28;59.01;98199.69;5025581;28;20135;-37
2021/08/13 08:59:57;;;;;;;13.18;8.10;;;24.50;74.70;;;24.25;58.77;98205.59;5024365;28;20233;-37
2021/08/13 09:02:25;;;;;;;10.27;8.70;;;24.50;74.50;;;24.28;58.76;98216.00;5025826;28;20059;-37
2021/08/13 09:04:53;;;;;;;10.70;8.30;;;24.50;74.20;;;24.26;58.92;98218.13;5025268;28;20057;-36
2021/08/13 09:07:21;;;;;;;12.43;9.63;;;24.50;74.90;;;24.30;59.48;98215.78;5025621;28;20051;-37
2021/08/13 09:09:49;;;;;;;10.60;8.75;;;24.50;75.50;;;24.37;59.68;98213.78;5026196;28;20044;-37
2021/08/13 09:12:17;;;;;;;9.38;7.88;;;24.60;76.70;;;24.38;58.48;98199.91;5026151;28;20057;-37
2021/08/13 09:14:45;;;;;;;9.32;8.30;;;24.70;74.10;;;24.45;58.35;98199.81;5026929;28;20057;-37
2021/08/13 09:17:13;;;;;;;12.45;8.73;;;24.70;73.60;;;24.49;57.38;98205.63;5024748;28;20049;-37
2021/08/13 09:19:48;;;;;;;14.32;8.70;;;24.80;72.90;;;24.53;57.67;98198.66;5025627;28;20071;-36
2021/08/13 09:22:19;;;;;;;9.23;8.25;;;24.80;72.10;;;24.57;56.99;98202.56;5027183;28;20068;-37
2021/08/13 09:24:51;;;;;;;11.23;8.98;;;24.90;72.10;;;24.64;57.66;98200.53;5023827;28;20048;-37
2021/08/13 09:27:44;;;;;;;9.30;8.00;;;25.00;72.40;;;24.68;57.15;98199.00;5031740;28;20220;-37
2021/08/13 09:30:44;;;;;;;9.15;7.35;;;25.00;71.70;;;24.73;57.13;98203.72;5029290;28;20067;-37
2021/08/13 09:33:13;;;;;;;11.38;8.20;;;25.00;71.10;;;24.69;56.62;98203.34;5024394;28;20053;-37
2021/08/13 09:35:42;;;;;;;13.32;8.32;;;25.00;71.20;;;24.77;56.35;98211.16;5025722;28;20331;-37
2021/08/13 09:38:12;;;;;;;9.52;7.47;;;25.10;71.00;;;24.76;55.75;98206.78;5025469;28;20063;-36
2021/08/13 09:40:44;;;;;;;9.77;7.88;;;25.10;69.90;;;24.83;56.41;98205.81;5027204;28;20394;-36
2021/08/13 09:43:12;;;;;;;8.65;7.57;;;25.20;70.70;;;24.90;56.42;98201.91;5024678;28;20484;-36
2021/08/13 09:45:42;;;;;;;9.00;7.72;;;25.20;71.30;;;25.00;56.30;98212.19;5023780;28;20053;-36
2021/08/13 09:48:24;;;;;;;10.25;7.28;;;25.30;70.40;;;25.08;55.98;98197.34;5025457;28;20057;-36
2021/08/13 09:50:52;;;;;;;8.50;7.63;;;25.50;69.10;;;25.12;56.14;98199.34;5040379;28;20264;-36
2021/08/13 09:53:20;;;;;;;10.75;8.25;;;25.50;70.20;;;25.19;56.09;98199.22;5025583;28;20103;-37
2021/08/13 09:55:49;;;;;;;10.70;7.80;;;25.60;70.10;;;25.26;55.87;98193.66;5026733;28;20252;-36
2021/08/13 09:58:26;;;;;;;9.75;7.20;;;25.60;69.50;;;25.32;55.28;98200.88;5022614;28;20547;-37
2021/08/13 10:00:55;;;;;;;9.45;7.25;;;25.70;68.90;;;25.39;55.72;98204.25;5024860;28;20300;-36
2021/08/13 10:03:23;;;;;;;10.00;7.78;;;25.80;69.50;;;25.45;55.03;98202.47;5023553;28;20422;-36
2021/08/13 10:06:05;;;;;;;12.20;8.65;;;25.80;68.00;;;25.52;55.07;98205.88;5023452;28;20072;-37
2021/08/13 10:08:41;;;;;;;8.80;7.38;;;26.00;67.90;;;25.58;54.77;98204.91;5023763;28;20045;-37
2021/08/13 10:11:14;;;;;;;15.30;9.30;;;26.00;68.20;;;25.62;54.78;98206.06;5042561;28;20522;-37
2021/08/13 10:13:50;;;;;;;10.82;7.80;;;26.00;68.90;;;25.67;55.09;98208.88;5022511;28;20308;-37
2021/08/13 10:16:25;;;;;;;10.70;8.30;;;26.10;69.20;;;25.71;54.96;98207.31;5008118;28;20209;-37
2021/08/13 10:18:59;;;;;;;10.82;8.02;;;26.10;68.90;;;25.75;55.41;98204.94;5022311;28;20118;-37
2021/08/13 10:21:31;;;;;;;8.95;7.45;;;26.10;69.50;;;25.78;54.67;98203.59;5021824;28;20053;-37
2021/08/13 10:24:01;;;;;;;10.15;8.38;;;26.10;69.00;;;25.76;54.67;98203.84;5023808;28;20059;-37
2021/08/13 10:26:30;;;;;;;9.82;8.48;;;26.10;69.00;;;25.78;55.00;98204.41;5024820;28;20402;-37
2021/08/13 10:28:58;;;;;;;10.20;7.63;;;26.10;69.20;;;25.83;54.69;98206.44;5022869;28;20359;-36
2021/08/13 10:31:28;;;;;;;11.63;7.95;;;26.10;69.30;;;25.86;55.00;98208.66;5024030;28;20084;-36